sensor_id;sensor_type;location;lat;lon;timestamp;P1;durP1;ratioP1;P2;durP2;ratioP2
59587;SDS011;45412;54.472;18.464;2023-09-18T00:00:23;16.50;;;8.50;;
59587;SDS011;45412;54.472;18.464;2023-09-18T00:03:29;18.30;;;9.50;;
59587;SDS011;45412;54.472;18.464;2023-09-18T00:06:15;18.40;;;9.50;;
59587;SDS011;45412;54.472;18.464;2023-09-18T00:09:02;17.30;;;9.70;;
59587;SDS011;45412;54.472;18.464;2023-09-18T00:11:48;17.10;;;9.10;;
59587;SDS011;45412;54.472;18.464;2023-09-18T00:14:36;17.10;;;8.80;;
59587;SDS011;45412;54.472;18.464;2023-09-18T00:17:23;18.10;;;9.30;;
59587;SDS011;45412;54.472;18.464;2023-09-18T00:20:10;20.60;;;10.50;;
59587;SDS011;45412;54.472;18.464;2023-09-18T00:22:57;20.50;;;9.90;;
59587;SDS011;45412;54.472;18.464;2023-09-18T00:25:44;17.00;;;8.80;;
59587;SDS011;45412;54.472;18.464;2023-09-18T00:28:30;22.70;;;10.10;;
59587;SDS011;45412;54.472;18.464;2023-09-18T00:31:17;19.10;;;10.20;;
59587;SDS011;45412;54.472;18.464;2023-09-18T00:34:03;22.70;;;10.40;;
59587;SDS011;45412;54.472;18.464;2023-09-18T00:36:50;19.40;;;10.40;;
59587;SDS011;45412;54.472;18.464;2023-09-18T00:39:36;21.00;;;10.20;;
59587;SDS011;45412;54.472;18.464;2023-09-18T00:42:24;18.60;;;10.10;;
59587;SDS011;45412;54.472;18.464;2023-09-18T00:45:10;20.10;;;11.20;;
59587;SDS011;45412;54.472;18.464;2023-09-18T00:47:57;21.00;;;10.80;;
59587;SDS011;45412;54.472;18.464;2023-09-18T00:50:46;20.50;;;11.60;;
59587;SDS011;45412;54.472;18.464;2023-09-18T00:53:32;20.60;;;11.10;;
59587;SDS011;45412;54.472;18.464;2023-09-18T00:56:19;20.80;;;11.10;;
59587;SDS011;45412;54.472;18.464;2023-09-18T00:59:09;22.20;;;12.00;;
59587;SDS011;45412;54.472;18.464;2023-09-18T01:01:56;23.20;;;12.20;;
59587;SDS011;45412;54.472;18.464;2023-09-18T01:04:42;22.40;;;11.80;;
59587;SDS011;45412;54.472;18.464;2023-09-18T01:07:29;21.30;;;11.90;;
59587;SDS011;45412;54.472;18.464;2023-09-18T01:10:15;24.30;;;11.90;;
59587;SDS011;45412;54.472;18.464;2023-09-18T01:13:11;21.80;;;12.20;;
59587;SDS011;45412;54.472;18.464;2023-09-18T01:16:25;20.50;;;11.20;;
59587;SDS011;45412;54.472;18.464;2023-09-18T01:19:17;22.60;;;12.70;;
59587;SDS011;45412;54.472;18.464;2023-09-18T01:22:05;21.20;;;11.90;;
59587;SDS011;45412;54.472;18.464;2023-09-18T01:24:52;22.80;;;12.60;;
59587;SDS011;45412;54.472;18.464;2023-09-18T01:27:40;24.80;;;12.60;;
59587;SDS011;45412;54.472;18.464;2023-09-18T01:30:28;22.70;;;12.70;;
59587;SDS011;45412;54.472;18.464;2023-09-18T01:33:15;21.40;;;12.20;;
59587;SDS011;45412;54.472;18.464;2023-09-18T01:36:02;22.60;;;12.60;;
59587;SDS011;45412;54.472;18.464;2023-09-18T01:38:51;21.60;;;12.10;;
59587;SDS011;45412;54.472;18.464;2023-09-18T01:41:39;21.00;;;11.20;;
59587;SDS011;45412;54.472;18.464;2023-09-18T01:44:26;22.90;;;12.10;;
59587;SDS011;45412;54.472;18.464;2023-09-18T01:47:15;22.30;;;11.70;;
59587;SDS011;45412;54.472;18.464;2023-09-18T01:50:04;19.20;;;10.80;;
59587;SDS011;45412;54.472;18.464;2023-09-18T01:52:54;19.20;;;11.00;;
59587;SDS011;45412;54.472;18.464;2023-09-18T01:55:40;20.00;;;11.60;;
59587;SDS011;45412;54.472;18.464;2023-09-18T01:58:27;21.60;;;11.70;;
59587;SDS011;45412;54.472;18.464;2023-09-18T02:01:13;20.00;;;11.70;;
59587;SDS011;45412;54.472;18.464;2023-09-18T02:04:00;20.60;;;11.60;;
59587;SDS011;45412;54.472;18.464;2023-09-18T02:07:07;20.60;;;11.80;;
59587;SDS011;45412;54.472;18.464;2023-09-18T02:09:54;20.80;;;11.60;;
59587;SDS011;45412;54.472;18.464;2023-09-18T02:12:41;18.50;;;10.80;;
59587;SDS011;45412;54.472;18.464;2023-09-18T02:15:27;18.20;;;11.50;;
59587;SDS011;45412;54.472;18.464;2023-09-18T02:18:13;20.20;;;10.90;;
59587;SDS011;45412;54.472;18.464;2023-09-18T02:21:02;20.80;;;11.10;;
59587;SDS011;45412;54.472;18.464;2023-09-18T02:23:49;22.20;;;11.50;;
59587;SDS011;45412;54.472;18.464;2023-09-18T02:26:37;19.40;;;11.40;;
59587;SDS011;45412;54.472;18.464;2023-09-18T02:29:24;19.40;;;11.60;;
59587;SDS011;45412;54.472;18.464;2023-09-18T02:32:11;20.80;;;11.40;;
59587;SDS011;45412;54.472;18.464;2023-09-18T02:34:57;19.00;;;10.60;;
59587;SDS011;45412;54.472;18.464;2023-09-18T02:37:44;20.70;;;11.20;;
59587;SDS011;45412;54.472;18.464;2023-09-18T02:40:30;25.00;;;12.60;;
59587;SDS011;45412;54.472;18.464;2023-09-18T02:43:17;24.80;;;13.20;;
59587;SDS011;45412;54.472;18.464;2023-09-18T02:46:04;24.60;;;12.70;;
59587;SDS011;45412;54.472;18.464;2023-09-18T02:48:51;22.50;;;11.80;;
59587;SDS011;45412;54.472;18.464;2023-09-18T02:51:39;21.40;;;12.20;;
59587;SDS011;45412;54.472;18.464;2023-09-18T02:54:25;22.00;;;12.00;;
59587;SDS011;45412;54.472;18.464;2023-09-18T02:57:12;23.70;;;12.70;;
59587;SDS011;45412;54.472;18.464;2023-09-18T02:59:59;25.30;;;13.00;;
59587;SDS011;45412;54.472;18.464;2023-09-18T03:02:45;24.50;;;13.10;;
59587;SDS011;45412;54.472;18.464;2023-09-18T03:05:32;23.80;;;13.00;;
59587;SDS011;45412;54.472;18.464;2023-09-18T03:08:18;23.90;;;12.40;;
59587;SDS011;45412;54.472;18.464;2023-09-18T03:11:12;25.20;;;12.90;;
59587;SDS011;45412;54.472;18.464;2023-09-18T03:13:59;22.20;;;11.50;;
59587;SDS011;45412;54.472;18.464;2023-09-18T03:16:46;24.50;;;13.00;;
59587;SDS011;45412;54.472;18.464;2023-09-18T03:19:32;27.00;;;13.40;;
59587;SDS011;45412;54.472;18.464;2023-09-18T03:22:19;23.60;;;13.10;;
59587;SDS011;45412;54.472;18.464;2023-09-18T03:25:06;21.40;;;12.40;;
59587;SDS011;45412;54.472;18.464;2023-09-18T03:27:54;23.10;;;12.40;;
59587;SDS011;45412;54.472;18.464;2023-09-18T03:30:43;22.40;;;11.80;;
59587;SDS011;45412;54.472;18.464;2023-09-18T03:33:29;21.40;;;12.60;;
59587;SDS011;45412;54.472;18.464;2023-09-18T03:36:16;23.90;;;12.10;;
59587;SDS011;45412;54.472;18.464;2023-09-18T03:39:02;21.20;;;12.50;;
59587;SDS011;45412;54.472;18.464;2023-09-18T03:41:51;22.50;;;12.30;;
59587;SDS011;45412;54.472;18.464;2023-09-18T03:44:37;21.10;;;12.50;;
59587;SDS011;45412;54.472;18.464;2023-09-18T03:47:23;21.10;;;11.90;;
59587;SDS011;45412;54.472;18.464;2023-09-18T03:50:10;21.50;;;12.90;;
59587;SDS011;45412;54.472;18.464;2023-09-18T03:52:57;21.80;;;12.60;;
59587;SDS011;45412;54.472;18.464;2023-09-18T03:55:44;25.40;;;12.60;;
59587;SDS011;45412;54.472;18.464;2023-09-18T03:58:30;21.70;;;12.40;;
59587;SDS011;45412;54.472;18.464;2023-09-18T04:01:16;22.00;;;13.00;;
59587;SDS011;45412;54.472;18.464;2023-09-18T04:04:03;20.90;;;12.70;;
59587;SDS011;45412;54.472;18.464;2023-09-18T04:06:51;19.70;;;11.50;;
59587;SDS011;45412;54.472;18.464;2023-09-18T04:09:37;22.30;;;12.20;;
59587;SDS011;45412;54.472;18.464;2023-09-18T04:12:24;22.10;;;12.30;;
59587;SDS011;45412;54.472;18.464;2023-09-18T04:15:14;23.50;;;12.00;;
59587;SDS011;45412;54.472;18.464;2023-09-18T04:18:01;22.90;;;12.30;;
59587;SDS011;45412;54.472;18.464;2023-09-18T04:20:48;24.10;;;13.00;;
59587;SDS011;45412;54.472;18.464;2023-09-18T04:23:37;22.20;;;12.30;;
59587;SDS011;45412;54.472;18.464;2023-09-18T04:26:23;21.70;;;12.30;;
59587;SDS011;45412;54.472;18.464;2023-09-18T04:29:11;21.50;;;13.20;;
59587;SDS011;45412;54.472;18.464;2023-09-18T04:31:57;21.50;;;11.50;;
59587;SDS011;45412;54.472;18.464;2023-09-18T04:34:44;22.50;;;12.30;;
59587;SDS011;45412;54.472;18.464;2023-09-18T04:37:36;20.10;;;11.60;;
59587;SDS011;45412;54.472;18.464;2023-09-18T04:40:24;20.00;;;11.20;;
59587;SDS011;45412;54.472;18.464;2023-09-18T04:43:11;22.40;;;12.20;;
59587;SDS011;45412;54.472;18.464;2023-09-18T04:45:57;22.10;;;11.60;;
59587;SDS011;45412;54.472;18.464;2023-09-18T04:48:44;18.90;;;11.50;;
59587;SDS011;45412;54.472;18.464;2023-09-18T04:51:31;19.10;;;11.00;;
59587;SDS011;45412;54.472;18.464;2023-09-18T04:54:18;19.40;;;10.90;;
59587;SDS011;45412;54.472;18.464;2023-09-18T04:57:05;23.00;;;11.20;;
59587;SDS011;45412;54.472;18.464;2023-09-18T04:59:51;23.40;;;12.50;;
59587;SDS011;45412;54.472;18.464;2023-09-18T05:02:51;26.70;;;12.30;;
59587;SDS011;45412;54.472;18.464;2023-09-18T05:05:38;23.10;;;11.60;;
59587;SDS011;45412;54.472;18.464;2023-09-18T05:08:24;20.10;;;11.70;;
59587;SDS011;45412;54.472;18.464;2023-09-18T05:11:11;19.10;;;11.00;;
59587;SDS011;45412;54.472;18.464;2023-09-18T05:14:00;21.20;;;11.30;;
59587;SDS011;45412;54.472;18.464;2023-09-18T05:16:46;21.90;;;11.40;;
59587;SDS011;45412;54.472;18.464;2023-09-18T05:19:33;21.80;;;11.10;;
59587;SDS011;45412;54.472;18.464;2023-09-18T05:22:19;20.00;;;10.60;;
59587;SDS011;45412;54.472;18.464;2023-09-18T05:25:06;18.70;;;10.80;;
59587;SDS011;45412;54.472;18.464;2023-09-18T05:27:53;17.80;;;10.00;;
59587;SDS011;45412;54.472;18.464;2023-09-18T05:30:43;18.00;;;10.40;;
59587;SDS011;45412;54.472;18.464;2023-09-18T05:33:29;20.60;;;10.50;;
59587;SDS011;45412;54.472;18.464;2023-09-18T05:36:15;19.00;;;10.50;;
59587;SDS011;45412;54.472;18.464;2023-09-18T05:39:03;17.80;;;10.60;;
59587;SDS011;45412;54.472;18.464;2023-09-18T05:41:53;20.20;;;10.00;;
59587;SDS011;45412;54.472;18.464;2023-09-18T05:44:40;18.30;;;10.80;;
59587;SDS011;45412;54.472;18.464;2023-09-18T05:47:26;16.40;;;9.30;;
59587;SDS011;45412;54.472;18.464;2023-09-18T05:50:13;17.90;;;9.00;;
59587;SDS011;45412;54.472;18.464;2023-09-18T05:53:02;16.00;;;9.20;;
59587;SDS011;45412;54.472;18.464;2023-09-18T05:55:52;15.60;;;8.80;;
59587;SDS011;45412;54.472;18.464;2023-09-18T05:58:38;12.50;;;7.60;;
59587;SDS011;45412;54.472;18.464;2023-09-18T06:01:25;15.40;;;8.20;;
59587;SDS011;45412;54.472;18.464;2023-09-18T06:04:12;14.90;;;7.30;;
59587;SDS011;45412;54.472;18.464;2023-09-18T06:06:59;15.80;;;8.60;;
59587;SDS011;45412;54.472;18.464;2023-09-18T06:09:45;14.50;;;8.00;;
59587;SDS011;45412;54.472;18.464;2023-09-18T06:12:32;13.40;;;7.20;;
59587;SDS011;45412;54.472;18.464;2023-09-18T06:15:18;14.30;;;8.20;;
59587;SDS011;45412;54.472;18.464;2023-09-18T06:18:04;14.30;;;7.80;;
59587;SDS011;45412;54.472;18.464;2023-09-18T06:20:52;13.60;;;7.50;;
59587;SDS011;45412;54.472;18.464;2023-09-18T06:23:38;15.10;;;8.40;;
59587;SDS011;45412;54.472;18.464;2023-09-18T06:26:25;16.90;;;9.10;;
59587;SDS011;45412;54.472;18.464;2023-09-18T06:29:11;13.70;;;7.80;;
59587;SDS011;45412;54.472;18.464;2023-09-18T06:31:57;14.10;;;8.30;;
59587;SDS011;45412;54.472;18.464;2023-09-18T06:34:44;14.30;;;7.50;;
59587;SDS011;45412;54.472;18.464;2023-09-18T06:37:31;12.90;;;7.30;;
59587;SDS011;45412;54.472;18.464;2023-09-18T06:40:17;13.50;;;7.90;;
59587;SDS011;45412;54.472;18.464;2023-09-18T06:43:04;12.40;;;6.70;;
59587;SDS011;45412;54.472;18.464;2023-09-18T06:45:50;12.20;;;6.80;;
59587;SDS011;45412;54.472;18.464;2023-09-18T06:48:37;11.80;;;6.80;;
59587;SDS011;45412;54.472;18.464;2023-09-18T06:51:23;11.30;;;6.40;;
59587;SDS011;45412;54.472;18.464;2023-09-18T06:54:28;13.20;;;6.60;;
59587;SDS011;45412;54.472;18.464;2023-09-18T06:57:14;11.70;;;6.50;;
59587;SDS011;45412;54.472;18.464;2023-09-18T07:00:00;11.40;;;6.40;;
59587;SDS011;45412;54.472;18.464;2023-09-18T07:02:47;11.10;;;6.60;;
59587;SDS011;45412;54.472;18.464;2023-09-18T07:05:33;11.70;;;5.50;;
59587;SDS011;45412;54.472;18.464;2023-09-18T07:08:19;10.80;;;6.40;;
59587;SDS011;45412;54.472;18.464;2023-09-18T07:11:09;11.90;;;6.50;;
59587;SDS011;45412;54.472;18.464;2023-09-18T07:13:55;10.80;;;5.70;;
59587;SDS011;45412;54.472;18.464;2023-09-18T07:16:42;9.90;;;5.50;;
59587;SDS011;45412;54.472;18.464;2023-09-18T07:19:29;10.70;;;6.00;;
59587;SDS011;45412;54.472;18.464;2023-09-18T07:22:15;9.90;;;6.00;;
59587;SDS011;45412;54.472;18.464;2023-09-18T07:25:02;10.40;;;6.20;;
59587;SDS011;45412;54.472;18.464;2023-09-18T07:27:49;12.10;;;5.60;;
59587;SDS011;45412;54.472;18.464;2023-09-18T07:30:35;10.40;;;5.30;;
59587;SDS011;45412;54.472;18.464;2023-09-18T07:33:23;10.40;;;5.40;;
59587;SDS011;45412;54.472;18.464;2023-09-18T07:36:10;12.30;;;5.70;;
59587;SDS011;45412;54.472;18.464;2023-09-18T07:38:56;10.10;;;5.20;;
59587;SDS011;45412;54.472;18.464;2023-09-18T07:41:42;12.70;;;5.40;;
59587;SDS011;45412;54.472;18.464;2023-09-18T07:44:31;10.90;;;5.00;;
59587;SDS011;45412;54.472;18.464;2023-09-18T07:47:19;9.60;;;5.30;;
59587;SDS011;45412;54.472;18.464;2023-09-18T07:50:05;9.20;;;4.90;;
59587;SDS011;45412;54.472;18.464;2023-09-18T07:52:52;9.50;;;5.30;;
59587;SDS011;45412;54.472;18.464;2023-09-18T07:55:38;7.90;;;4.50;;
59587;SDS011;45412;54.472;18.464;2023-09-18T07:58:25;10.20;;;5.40;;
59587;SDS011;45412;54.472;18.464;2023-09-18T08:01:13;9.60;;;5.10;;
59587;SDS011;45412;54.472;18.464;2023-09-18T08:04:02;9.70;;;4.30;;
59587;SDS011;45412;54.472;18.464;2023-09-18T08:06:49;9.00;;;4.80;;
59587;SDS011;45412;54.472;18.464;2023-09-18T08:09:35;8.90;;;4.30;;
59587;SDS011;45412;54.472;18.464;2023-09-18T08:12:25;10.30;;;5.30;;
59587;SDS011;45412;54.472;18.464;2023-09-18T08:15:11;9.30;;;4.80;;
59587;SDS011;45412;54.472;18.464;2023-09-18T08:17:57;9.60;;;4.90;;
59587;SDS011;45412;54.472;18.464;2023-09-18T08:20:45;9.50;;;4.40;;
59587;SDS011;45412;54.472;18.464;2023-09-18T08:23:32;9.30;;;4.00;;
59587;SDS011;45412;54.472;18.464;2023-09-18T08:26:19;9.30;;;4.40;;
59587;SDS011;45412;54.472;18.464;2023-09-18T08:29:05;14.20;;;11.40;;
59587;SDS011;45412;54.472;18.464;2023-09-18T08:31:51;8.50;;;4.60;;
59587;SDS011;45412;54.472;18.464;2023-09-18T08:34:37;8.30;;;4.10;;
59587;SDS011;45412;54.472;18.464;2023-09-18T08:37:24;8.30;;;3.90;;
59587;SDS011;45412;54.472;18.464;2023-09-18T08:40:13;9.20;;;4.20;;
59587;SDS011;45412;54.472;18.464;2023-09-18T08:43:04;8.70;;;4.40;;
59587;SDS011;45412;54.472;18.464;2023-09-18T08:45:52;9.20;;;4.00;;
59587;SDS011;45412;54.472;18.464;2023-09-18T08:48:39;7.40;;;3.40;;
59587;SDS011;45412;54.472;18.464;2023-09-18T08:51:28;9.00;;;3.80;;
59587;SDS011;45412;54.472;18.464;2023-09-18T08:54:15;8.10;;;3.60;;
59587;SDS011;45412;54.472;18.464;2023-09-18T08:57:01;8.90;;;3.80;;
59587;SDS011;45412;54.472;18.464;2023-09-18T08:59:53;8.80;;;4.10;;
59587;SDS011;45412;54.472;18.464;2023-09-18T09:02:41;7.60;;;3.80;;
59587;SDS011;45412;54.472;18.464;2023-09-18T09:05:27;10.00;;;3.80;;
59587;SDS011;45412;54.472;18.464;2023-09-18T09:08:14;9.10;;;4.00;;
59587;SDS011;45412;54.472;18.464;2023-09-18T09:11:02;8.90;;;4.40;;
59587;SDS011;45412;54.472;18.464;2023-09-18T09:14:12;8.40;;;4.10;;
59587;SDS011;45412;54.472;18.464;2023-09-18T09:17:18;7.70;;;3.90;;
59587;SDS011;45412;54.472;18.464;2023-09-18T09:20:08;7.80;;;4.00;;
59587;SDS011;45412;54.472;18.464;2023-09-18T09:23:01;11.00;;;4.20;;
59587;SDS011;45412;54.472;18.464;2023-09-18T09:25:51;8.50;;;4.00;;
59587;SDS011;45412;54.472;18.464;2023-09-18T09:28:38;7.80;;;3.40;;
59587;SDS011;45412;54.472;18.464;2023-09-18T09:31:29;8.50;;;4.10;;
59587;SDS011;45412;54.472;18.464;2023-09-18T09:34:26;9.50;;;3.90;;
59587;SDS011;45412;54.472;18.464;2023-09-18T09:37:16;7.80;;;3.80;;
59587;SDS011;45412;54.472;18.464;2023-09-18T09:40:03;9.70;;;4.20;;
59587;SDS011;45412;54.472;18.464;2023-09-18T09:42:57;7.40;;;3.50;;
59587;SDS011;45412;54.472;18.464;2023-09-18T09:45:46;8.40;;;3.50;;
59587;SDS011;45412;54.472;18.464;2023-09-18T09:48:32;9.60;;;3.70;;
59587;SDS011;45412;54.472;18.464;2023-09-18T09:51:18;8.30;;;3.70;;
59587;SDS011;45412;54.472;18.464;2023-09-18T09:54:08;7.60;;;3.50;;
59587;SDS011;45412;54.472;18.464;2023-09-18T09:56:57;6.90;;;3.40;;
59587;SDS011;45412;54.472;18.464;2023-09-18T09:59:48;8.30;;;3.60;;
59587;SDS011;45412;54.472;18.464;2023-09-18T10:02:35;8.20;;;3.60;;
59587;SDS011;45412;54.472;18.464;2023-09-18T10:05:22;7.60;;;3.40;;
59587;SDS011;45412;54.472;18.464;2023-09-18T10:08:22;8.60;;;3.70;;
59587;SDS011;45412;54.472;18.464;2023-09-18T10:11:14;10.30;;;3.90;;
59587;SDS011;45412;54.472;18.464;2023-09-18T10:14:14;9.20;;;3.90;;
59587;SDS011;45412;54.472;18.464;2023-09-18T10:17:18;9.10;;;3.70;;
59587;SDS011;45412;54.472;18.464;2023-09-18T10:20:07;9.40;;;3.70;;
59587;SDS011;45412;54.472;18.464;2023-09-18T10:22:57;7.70;;;3.70;;
59587;SDS011;45412;54.472;18.464;2023-09-18T10:25:47;7.90;;;3.70;;
59587;SDS011;45412;54.472;18.464;2023-09-18T10:28:36;8.30;;;4.00;;
59587;SDS011;45412;54.472;18.464;2023-09-18T10:31:26;7.40;;;3.50;;
59587;SDS011;45412;54.472;18.464;2023-09-18T10:34:13;9.20;;;3.70;;
59587;SDS011;45412;54.472;18.464;2023-09-18T10:37:04;8.10;;;3.60;;
59587;SDS011;45412;54.472;18.464;2023-09-18T10:39:54;8.10;;;3.70;;
59587;SDS011;45412;54.472;18.464;2023-09-18T10:42:42;8.10;;;3.90;;
59587;SDS011;45412;54.472;18.464;2023-09-18T10:45:32;7.90;;;3.40;;
59587;SDS011;45412;54.472;18.464;2023-09-18T10:48:19;8.60;;;3.70;;
59587;SDS011;45412;54.472;18.464;2023-09-18T10:51:06;9.50;;;4.40;;
59587;SDS011;45412;54.472;18.464;2023-09-18T10:53:53;7.60;;;4.00;;
59587;SDS011;45412;54.472;18.464;2023-09-18T10:56:42;7.50;;;3.30;;
59587;SDS011;45412;54.472;18.464;2023-09-18T10:59:29;9.00;;;3.80;;
59587;SDS011;45412;54.472;18.464;2023-09-18T11:02:17;9.90;;;4.20;;
59587;SDS011;45412;54.472;18.464;2023-09-18T11:05:04;10.00;;;4.40;;
59587;SDS011;45412;54.472;18.464;2023-09-18T11:08:31;8.50;;;3.70;;
59587;SDS011;45412;54.472;18.464;2023-09-18T11:11:21;8.50;;;4.10;;
59587;SDS011;45412;54.472;18.464;2023-09-18T11:14:11;7.50;;;3.90;;
59587;SDS011;45412;54.472;18.464;2023-09-18T11:16:58;7.70;;;4.30;;
59587;SDS011;45412;54.472;18.464;2023-09-18T11:19:45;8.40;;;4.10;;
59587;SDS011;45412;54.472;18.464;2023-09-18T11:22:32;10.40;;;4.70;;
59587;SDS011;45412;54.472;18.464;2023-09-18T11:28:25;8.40;;;4.20;;
59587;SDS011;45412;54.472;18.464;2023-09-18T11:31:12;7.80;;;4.10;;
59587;SDS011;45412;54.472;18.464;2023-09-18T11:33:58;9.80;;;4.40;;
59587;SDS011;45412;54.472;18.464;2023-09-18T11:36:44;7.80;;;4.00;;
59587;SDS011;45412;54.472;18.464;2023-09-18T11:39:38;10.10;;;4.10;;
59587;SDS011;45412;54.472;18.464;2023-09-18T11:42:26;9.20;;;4.20;;
59587;SDS011;45412;54.472;18.464;2023-09-18T11:45:18;8.60;;;4.40;;
59587;SDS011;45412;54.472;18.464;2023-09-18T11:48:04;8.70;;;4.10;;
59587;SDS011;45412;54.472;18.464;2023-09-18T11:50:52;7.40;;;3.90;;
59587;SDS011;45412;54.472;18.464;2023-09-18T11:53:40;19.00;;;4.30;;
59587;SDS011;45412;54.472;18.464;2023-09-18T11:56:30;7.40;;;3.70;;
59587;SDS011;45412;54.472;18.464;2023-09-18T11:59:16;8.60;;;3.90;;
59587;SDS011;45412;54.472;18.464;2023-09-18T12:02:05;8.70;;;4.20;;
59587;SDS011;45412;54.472;18.464;2023-09-18T12:04:52;8.80;;;4.30;;
59587;SDS011;45412;54.472;18.464;2023-09-18T12:07:40;9.20;;;3.70;;
59587;SDS011;45412;54.472;18.464;2023-09-18T12:10:32;9.80;;;4.50;;
59587;SDS011;45412;54.472;18.464;2023-09-18T12:13:20;8.80;;;3.80;;
59587;SDS011;45412;54.472;18.464;2023-09-18T12:16:07;9.50;;;3.80;;
59587;SDS011;45412;54.472;18.464;2023-09-18T12:18:55;8.10;;;4.00;;
59587;SDS011;45412;54.472;18.464;2023-09-18T12:21:42;8.80;;;3.90;;
59587;SDS011;45412;54.472;18.464;2023-09-18T12:24:33;8.60;;;4.30;;
59587;SDS011;45412;54.472;18.464;2023-09-18T12:27:19;10.80;;;4.00;;
59587;SDS011;45412;54.472;18.464;2023-09-18T12:30:07;11.40;;;4.20;;
59587;SDS011;45412;54.472;18.464;2023-09-18T12:32:54;9.00;;;4.20;;
59587;SDS011;45412;54.472;18.464;2023-09-18T12:35:44;8.20;;;4.20;;
59587;SDS011;45412;54.472;18.464;2023-09-18T12:38:32;8.50;;;4.10;;
59587;SDS011;45412;54.472;18.464;2023-09-18T12:41:20;10.80;;;4.30;;
59587;SDS011;45412;54.472;18.464;2023-09-18T12:44:07;11.20;;;3.80;;
59587;SDS011;45412;54.472;18.464;2023-09-18T12:46:53;7.60;;;4.00;;
59587;SDS011;45412;54.472;18.464;2023-09-18T12:49:40;9.90;;;4.40;;
59587;SDS011;45412;54.472;18.464;2023-09-18T12:52:26;9.80;;;3.80;;
59587;SDS011;45412;54.472;18.464;2023-09-18T12:55:24;10.80;;;4.40;;
59587;SDS011;45412;54.472;18.464;2023-09-18T12:58:13;8.40;;;3.80;;
59587;SDS011;45412;54.472;18.464;2023-09-18T13:01:03;9.10;;;4.00;;
59587;SDS011;45412;54.472;18.464;2023-09-18T13:03:54;9.70;;;4.00;;
59587;SDS011;45412;54.472;18.464;2023-09-18T13:06:45;8.50;;;4.00;;
59587;SDS011;45412;54.472;18.464;2023-09-18T13:09:31;9.70;;;3.80;;
59587;SDS011;45412;54.472;18.464;2023-09-18T13:12:18;9.70;;;4.10;;
59587;SDS011;45412;54.472;18.464;2023-09-18T13:15:04;8.80;;;3.80;;
59587;SDS011;45412;54.472;18.464;2023-09-18T13:17:55;10.30;;;4.10;;
59587;SDS011;45412;54.472;18.464;2023-09-18T13:20:43;11.10;;;3.90;;
59587;SDS011;45412;54.472;18.464;2023-09-18T13:23:31;9.80;;;4.10;;
59587;SDS011;45412;54.472;18.464;2023-09-18T13:26:18;8.40;;;4.20;;
59587;SDS011;45412;54.472;18.464;2023-09-18T13:29:05;8.00;;;3.60;;
59587;SDS011;45412;54.472;18.464;2023-09-18T13:31:51;11.00;;;4.30;;
59587;SDS011;45412;54.472;18.464;2023-09-18T13:34:38;9.40;;;4.00;;
59587;SDS011;45412;54.472;18.464;2023-09-18T13:37:25;9.00;;;4.60;;
59587;SDS011;45412;54.472;18.464;2023-09-18T13:40:12;10.90;;;4.10;;
59587;SDS011;45412;54.472;18.464;2023-09-18T13:42:59;7.50;;;4.40;;
59587;SDS011;45412;54.472;18.464;2023-09-18T13:45:46;8.40;;;4.20;;
59587;SDS011;45412;54.472;18.464;2023-09-18T13:48:32;8.60;;;4.10;;
59587;SDS011;45412;54.472;18.464;2023-09-18T13:51:19;9.20;;;4.00;;
59587;SDS011;45412;54.472;18.464;2023-09-18T13:54:05;9.50;;;4.60;;
59587;SDS011;45412;54.472;18.464;2023-09-18T13:56:53;9.30;;;4.00;;
59587;SDS011;45412;54.472;18.464;2023-09-18T13:59:48;7.70;;;4.00;;
59587;SDS011;45412;54.472;18.464;2023-09-18T14:02:35;8.60;;;3.90;;
59587;SDS011;45412;54.472;18.464;2023-09-18T14:05:21;10.00;;;4.10;;
59587;SDS011;45412;54.472;18.464;2023-09-18T14:08:08;9.30;;;4.00;;
59587;SDS011;45412;54.472;18.464;2023-09-18T14:10:54;9.90;;;4.50;;
59587;SDS011;45412;54.472;18.464;2023-09-18T14:13:41;8.10;;;4.70;;
59587;SDS011;45412;54.472;18.464;2023-09-18T14:16:28;7.60;;;3.90;;
59587;SDS011;45412;54.472;18.464;2023-09-18T14:19:15;9.10;;;4.10;;
59587;SDS011;45412;54.472;18.464;2023-09-18T14:22:01;8.80;;;3.90;;
59587;SDS011;45412;54.472;18.464;2023-09-18T14:24:49;8.20;;;4.00;;
59587;SDS011;45412;54.472;18.464;2023-09-18T14:27:36;8.10;;;4.20;;
59587;SDS011;45412;54.472;18.464;2023-09-18T14:30:22;8.40;;;4.10;;
59587;SDS011;45412;54.472;18.464;2023-09-18T14:33:16;8.90;;;3.90;;
59587;SDS011;45412;54.472;18.464;2023-09-18T14:36:02;8.60;;;4.10;;
59587;SDS011;45412;54.472;18.464;2023-09-18T14:38:49;11.80;;;4.50;;
59587;SDS011;45412;54.472;18.464;2023-09-18T14:41:37;8.00;;;3.90;;
59587;SDS011;45412;54.472;18.464;2023-09-18T14:44:24;7.40;;;4.00;;
59587;SDS011;45412;54.472;18.464;2023-09-18T14:47:11;9.00;;;4.10;;
59587;SDS011;45412;54.472;18.464;2023-09-18T14:49:58;10.50;;;4.50;;
59587;SDS011;45412;54.472;18.464;2023-09-18T14:52:47;8.80;;;4.30;;
59587;SDS011;45412;54.472;18.464;2023-09-18T14:55:34;8.80;;;4.20;;
59587;SDS011;45412;54.472;18.464;2023-09-18T14:58:21;8.50;;;4.50;;
59587;SDS011;45412;54.472;18.464;2023-09-18T15:01:10;10.50;;;4.70;;
59587;SDS011;45412;54.472;18.464;2023-09-18T15:04:00;8.60;;;4.60;;
59587;SDS011;45412;54.472;18.464;2023-09-18T15:06:47;8.10;;;4.60;;
59587;SDS011;45412;54.472;18.464;2023-09-18T15:09:33;8.10;;;4.70;;
59587;SDS011;45412;54.472;18.464;2023-09-18T15:12:19;9.10;;;5.00;;
59587;SDS011;45412;54.472;18.464;2023-09-18T15:15:06;9.70;;;5.00;;
59587;SDS011;45412;54.472;18.464;2023-09-18T15:17:52;9.50;;;5.20;;
59587;SDS011;45412;54.472;18.464;2023-09-18T15:20:38;10.50;;;5.40;;
59587;SDS011;45412;54.472;18.464;2023-09-18T15:23:27;11.20;;;5.50;;
59587;SDS011;45412;54.472;18.464;2023-09-18T15:26:13;12.50;;;5.80;;
59587;SDS011;45412;54.472;18.464;2023-09-18T15:29:00;10.40;;;5.90;;
59587;SDS011;45412;54.472;18.464;2023-09-18T15:31:46;10.10;;;5.30;;
59587;SDS011;45412;54.472;18.464;2023-09-18T15:34:33;10.50;;;5.50;;
59587;SDS011;45412;54.472;18.464;2023-09-18T15:37:19;12.50;;;5.50;;
59587;SDS011;45412;54.472;18.464;2023-09-18T15:40:06;11.80;;;6.00;;
59587;SDS011;45412;54.472;18.464;2023-09-18T15:42:53;15.00;;;6.10;;
59587;SDS011;45412;54.472;18.464;2023-09-18T15:45:40;14.20;;;7.00;;
59587;SDS011;45412;54.472;18.464;2023-09-18T15:48:27;11.10;;;6.20;;
59587;SDS011;45412;54.472;18.464;2023-09-18T15:51:14;11.50;;;7.10;;
59587;SDS011;45412;54.472;18.464;2023-09-18T15:54:00;10.40;;;6.60;;
59587;SDS011;45412;54.472;18.464;2023-09-18T15:56:47;12.50;;;6.90;;
59587;SDS011;45412;54.472;18.464;2023-09-18T15:59:34;11.90;;;7.20;;
59587;SDS011;45412;54.472;18.464;2023-09-18T16:02:25;16.00;;;7.60;;
59587;SDS011;45412;54.472;18.464;2023-09-18T16:05:12;13.60;;;7.40;;
59587;SDS011;45412;54.472;18.464;2023-09-18T16:07:58;12.30;;;7.20;;
59587;SDS011;45412;54.472;18.464;2023-09-18T16:10:50;11.60;;;7.10;;
59587;SDS011;45412;54.472;18.464;2023-09-18T16:13:37;12.20;;;7.80;;
59587;SDS011;45412;54.472;18.464;2023-09-18T16:16:24;14.10;;;7.70;;
59587;SDS011;45412;54.472;18.464;2023-09-18T16:19:11;15.60;;;8.50;;
59587;SDS011;45412;54.472;18.464;2023-09-18T16:21:58;14.80;;;8.20;;
59587;SDS011;45412;54.472;18.464;2023-09-18T16:24:44;13.70;;;8.40;;
59587;SDS011;45412;54.472;18.464;2023-09-18T16:27:31;14.50;;;8.50;;